Flight Track Log - Related Links

Times and Time Zones

All times are in EDT time to prevent confusion due to time zone crossing. See the AWI3688 flight status page for this flight to view local times or setup timezone preferences in your user account.

Time Position Orientation Groundspeed Altitude Reporting Facility
EDT Latitude Longitude Course Direction KTS MPH feet Rate Location/Type
Mon 02:30:55 PM 42.7339 -73.8081 223° Southwest 154 177 1,200  Level Boston Center
Mon 02:31:38 PM 42.6983 -73.8186 192° South 171 197 3,200 2,727 Climbing Boston Center
Mon 02:32:01 PM 42.6981 -73.8442 269° West 222 255 4,200 3,108 Climbing Boston Center
Mon 02:33:01 PM 42.7033 -73.9206 275° West 222 255 7,500 3,000 Climbing Boston Center
Mon 02:34:00 PM 42.6766 -74.3785 220° Southwest  Level FlightAware Approximate
Mon 02:34:01 PM 42.7128 -74.0056 279° West 227 261 10,200  Level Boston Center
Mon 02:35:00 PM 42.6081 -74.4555 220° Southwest  Level FlightAware Approximate
Mon 02:35:01 PM 42.7239 -74.1047 279° West 240 276 11,300  Level Boston Center
Mon 02:36:00 PM 42.5416 -74.5355 223° Southwest  Level FlightAware Approximate
Mon 02:36:01 PM 42.7347 -74.2067 278° West 290 334 13,500  Level Boston Center
Mon 02:37:01 PM 42.7286 -74.3283 266° West 303 349 15,700 2,050 Climbing Boston Center
Mon 02:38:01 PM 42.6669 -74.3969 219° Southwest 295 339 17,600 1,650 Climbing Boston Center
Mon 02:39:01 PM 42.5903 -74.4875 221° Southwest 327 376 19,000 700 Climbing Boston Center
Mon 02:40:01 PM 42.5306 -74.5731 227° Southwest 343 395 19,000  Level Boston Center
Mon 02:41:01 PM 42.4781 -74.6950 240° Southwest 343 395 19,000  Level Boston Center
Mon 02:42:01 PM 42.4078 -74.7628 215° Southwest 349 402 19,000  Level Boston Center
Mon 02:44:04 PM 42.2428 -74.9053 213° Southwest 334 384 19,000  Level New York Center
Mon 02:45:05 PM 42.1525 -74.9808 212° Southwest 348 400 19,000  Level New York Center
Mon 02:46:05 PM 42.0753 -75.0458 212° Southwest 354 407 19,000  Level New York Center
Mon 02:47:06 PM 41.9875 -75.1181 211° Southwest 354 407 19,000  Level New York Center
Mon 02:48:06 PM 41.9039 -75.1850 211° Southwest 354 407 19,000  Level New York Center
Mon 02:49:04 PM 41.8200 -75.2519 211° Southwest 354 407 19,000 -102 Level New York Center
Mon 02:50:04 PM 41.7447 -75.3136 211° Southwest 354 407 18,800 -694 Descending New York Center
Mon 02:51:05 PM 41.6503 -75.3903 211° Southwest 354 407 17,600 -1,835 Descending New York Center
Mon 02:52:05 PM 41.5686 -75.4569 211° Southwest 354 407 15,100 -2,430 Descending New York Center
Mon 02:53:06 PM 41.4911 -75.5178 210° Southwest 342 394 12,700 -1,537 Descending New York Center
Mon 02:54:06 PM 41.4244 -75.5711 211° Southwest 326 375 12,000 -356 Descending New York Center
Mon 02:55:04 PM 41.3428 -75.6344 210° Southwest 316 364 12,000 -102 Level New York Center
Mon 02:56:04 PM 41.2825 -75.6797 209° Southwest 316 364 11,800 -893 Descending New York Center
Mon 02:57:05 PM 41.1800 -75.6889 184° South 308 354 10,200 -893 Descending New York Center
Mon 02:58:05 PM 41.0989 -75.6886 180° South 308 354 10,000 -101 Descending New York Center
Mon 02:59:04 PM 41.0114 -75.6878 180° South 308 354 10,000  Level New York Center
Mon 03:00:04 PM 40.9361 -75.6906 182° South 308 354 10,000  Level New York Center
Mon 03:01:06 PM 40.8406 -75.6864 178° South 308 354 10,000  Level New York Center
Mon 03:02:04 PM 40.7572 -75.6886 181° South 308 354 10,000  Level New York Center
Mon 03:03:05 PM 40.6800 -75.6886 180° South 308 354 10,000  Level New York Center
Mon 03:04:05 PM 40.6089 -75.6450 155° Southeast 301 346 10,000  Level New York Center
Mon 03:05:06 PM 40.5514 -75.5728 136° Southeast 288 331 10,000 -303 Level New York Center
Mon 03:06:04 PM 40.5100 -75.5125 132° Southeast 246 283 9,400 -508 Descending New York Center
Mon 03:07:04 PM 40.4667 -75.4550 135° Southeast 226 260 9,000 -397 Descending New York Center
Mon 03:08:05 PM 40.4186 -75.4544 179° South 176 203 8,600 -787 Descending New York Center
Mon 03:09:06 PM 40.3750 -75.5033 221° Southwest 178 205 7,400 -915 Descending New York Center
Mon 03:10:03 PM 40.3347 -75.4706 148° Southeast 152 175 6,800 -864 Descending New York Center
Mon 03:11:04 PM 40.2942 -75.4406 151° Southeast 158 182 5,700 -1,140 Descending New York Center
Mon 03:12:04 PM 40.2575 -75.4192 156° South 163 188 4,500 -1,190 Descending New York Center
Mon 03:13:05 PM 40.2164 -75.4028 163° South 163 188 3,300 -744 Descending New York Center
Mon 03:14:05 PM 40.1714 -75.3808 160° South 158 182 3,000 -153 Descending New York Center
Mon 03:15:03 PM 40.1325 -75.3617 159° South 158 182 3,000  Level New York Center
Mon 03:16:04 PM 40.0936 -75.3431 160° South 158 182 3,000  Level New York Center
Mon 03:16:48 PM 40.0667 -75.3333 165° South 158 182 3,000 -103 Level Philadelphia TRACON
Mon 03:18:00 PM 40.0167 -75.3000 153° Southeast 153 176 2,800 -455 Descending Philadelphia TRACON
Mon 03:19:00 PM 39.9833 -75.2833 159° South 144 166 2,000 -722 Descending Philadelphia TRACON
Mon 03:19:48 PM 39.9500 -75.2667 159° South 115 132 1,500 -650 Descending Philadelphia TRACON
Mon 03:21:00 PM 39.9167 -75.2500 159° South 119 137 700 -667 Descending Philadelphia TRACON
Mon 03:22:00 PM 39.8667 -75.2333 166° South  Level FlightAware Approximate
Mon 03:29:00 PM 39.8722 -75.2409 166° South  Level Estimated
Mon 03:30:00 PM 39.8722 -75.2409 166° South  Level Estimated

Login

Don't have an account? Register now (free) for customized features, flight alerts, and more!